sensor_id;sensor_type;location;lat;lon;timestamp;temperature;humidity
56336;DHT22;42241;53.510;10.170;2022-12-24T00:01:52;5.70;99.90
56336;DHT22;42241;53.510;10.170;2022-12-24T00:04:18;5.70;99.90
56336;DHT22;42241;53.510;10.170;2022-12-24T00:06:43;5.60;99.90
56336;DHT22;42241;53.510;10.170;2022-12-24T00:09:24;5.70;99.90
56336;DHT22;42241;53.510;10.170;2022-12-24T00:11:50;5.70;99.90
56336;DHT22;42241;53.510;10.170;2022-12-24T00:14:15;5.70;99.90
56336;DHT22;42241;53.510;10.170;2022-12-24T00:16:41;5.70;99.90
56336;DHT22;42241;53.510;10.170;2022-12-24T00:19:06;5.80;99.90
56336;DHT22;42241;53.510;10.170;2022-12-24T00:21:32;5.80;99.90
56336;DHT22;42241;53.510;10.170;2022-12-24T00:23:57;5.70;99.90
56336;DHT22;42241;53.510;10.170;2022-12-24T00:26:23;5.70;99.90
56336;DHT22;42241;53.510;10.170;2022-12-24T00:28:49;5.80;99.90
56336;DHT22;42241;53.510;10.170;2022-12-24T00:31:15;5.70;99.90
56336;DHT22;42241;53.510;10.170;2022-12-24T00:33:41;5.70;99.90
56336;DHT22;42241;53.510;10.170;2022-12-24T00:36:06;5.70;99.90
56336;DHT22;42241;53.510;10.170;2022-12-24T00:38:35;5.70;99.90
56336;DHT22;42241;53.510;10.170;2022-12-24T00:41:01;5.70;99.90
56336;DHT22;42241;53.510;10.170;2022-12-24T00:43:27;5.60;99.90
56336;DHT22;42241;53.510;10.170;2022-12-24T00:45:52;5.70;99.90
56336;DHT22;42241;53.510;10.170;2022-12-24T00:48:18;5.60;99.90
56336;DHT22;42241;53.510;10.170;2022-12-24T00:50:44;5.70;99.90
56336;DHT22;42241;53.510;10.170;2022-12-24T00:53:09;5.70;99.90
56336;DHT22;42241;53.510;10.170;2022-12-24T00:55:35;5.70;99.90
56336;DHT22;42241;53.510;10.170;2022-12-24T00:58:00;5.70;99.90
56336;DHT22;42241;53.510;10.170;2022-12-24T01:00:26;5.70;99.90
56336;DHT22;42241;53.510;10.170;2022-12-24T01:02:51;5.70;99.90
56336;DHT22;42241;53.510;10.170;2022-12-24T01:05:17;5.70;99.90
56336;DHT22;42241;53.510;10.170;2022-12-24T01:07:45;5.70;99.90
56336;DHT22;42241;53.510;10.170;2022-12-24T01:10:12;5.70;99.90
56336;DHT22;42241;53.510;10.170;2022-12-24T01:12:38;5.70;99.90
56336;DHT22;42241;53.510;10.170;2022-12-24T01:15:04;5.70;99.90
56336;DHT22;42241;53.510;10.170;2022-12-24T01:17:30;5.70;99.90
56336;DHT22;42241;53.510;10.170;2022-12-24T01:19:56;5.70;99.90
56336;DHT22;42241;53.510;10.170;2022-12-24T01:22:21;5.60;99.90
56336;DHT22;42241;53.510;10.170;2022-12-24T01:24:47;5.70;99.90
56336;DHT22;42241;53.510;10.170;2022-12-24T01:27:12;5.60;99.90
56336;DHT22;42241;53.510;10.170;2022-12-24T01:29:38;5.70;99.90
56336;DHT22;42241;53.510;10.170;2022-12-24T01:32:04;5.60;99.90
56336;DHT22;42241;53.510;10.170;2022-12-24T01:34:29;5.70;99.90
56336;DHT22;42241;53.510;10.170;2022-12-24T01:36:55;5.70;99.90
56336;DHT22;42241;53.510;10.170;2022-12-24T01:39:21;5.60;99.90
56336;DHT22;42241;53.510;10.170;2022-12-24T01:41:46;5.60;99.90
56336;DHT22;42241;53.510;10.170;2022-12-24T01:44:32;5.60;99.90
56336;DHT22;42241;53.510;10.170;2022-12-24T01:47:11;5.70;99.90
56336;DHT22;42241;53.510;10.170;2022-12-24T01:49:38;5.60;99.90
56336;DHT22;42241;53.510;10.170;2022-12-24T01:52:09;5.60;99.90
56336;DHT22;42241;53.510;10.170;2022-12-24T01:54:36;5.60;99.90
56336;DHT22;42241;53.510;10.170;2022-12-24T01:57:05;5.60;99.90
56336;DHT22;42241;53.510;10.170;2022-12-24T01:59:32;5.60;99.90
56336;DHT22;42241;53.510;10.170;2022-12-24T02:01:58;5.60;99.90
56336;DHT22;42241;53.510;10.170;2022-12-24T02:06:51;5.60;99.90
56336;DHT22;42241;53.510;10.170;2022-12-24T02:09:16;5.60;99.90
56336;DHT22;42241;53.510;10.170;2022-12-24T02:11:42;5.60;99.90
56336;DHT22;42241;53.510;10.170;2022-12-24T02:14:09;5.70;99.90
56336;DHT22;42241;53.510;10.170;2022-12-24T02:16:37;5.70;99.90
56336;DHT22;42241;53.510;10.170;2022-12-24T02:27:20;5.70;99.90
56336;DHT22;42241;53.510;10.170;2022-12-24T02:30:00;5.70;99.90
56336;DHT22;42241;53.510;10.170;2022-12-24T02:32:32;5.70;99.90
56336;DHT22;42241;53.510;10.170;2022-12-24T02:37:30;5.80;99.90
56336;DHT22;42241;53.510;10.170;2022-12-24T02:40:03;5.70;99.90
56336;DHT22;42241;53.510;10.170;2022-12-24T02:42:39;5.70;99.90
56336;DHT22;42241;53.510;10.170;2022-12-24T02:45:09;5.70;99.90
56336;DHT22;42241;53.510;10.170;2022-12-24T02:47:36;5.70;99.90
56336;DHT22;42241;53.510;10.170;2022-12-24T02:50:03;5.70;99.90
56336;DHT22;42241;53.510;10.170;2022-12-24T02:52:35;5.70;99.90
56336;DHT22;42241;53.510;10.170;2022-12-24T02:55:25;5.70;99.90
56336;DHT22;42241;53.510;10.170;2022-12-24T03:00:34;5.80;99.90
56336;DHT22;42241;53.510;10.170;2022-12-24T03:03:11;5.70;99.90
56336;DHT22;42241;53.510;10.170;2022-12-24T03:05:42;5.70;99.90
56336;DHT22;42241;53.510;10.170;2022-12-24T03:08:15;5.70;99.90
56336;DHT22;42241;53.510;10.170;2022-12-24T03:11:19;5.70;99.90
56336;DHT22;42241;53.510;10.170;2022-12-24T03:13:38;5.70;99.90
56336;DHT22;42241;53.510;10.170;2022-12-24T03:16:15;5.80;99.90
56336;DHT22;42241;53.510;10.170;2022-12-24T03:18:45;5.70;99.90
56336;DHT22;42241;53.510;10.170;2022-12-24T03:21:12;5.70;99.90
56336;DHT22;42241;53.510;10.170;2022-12-24T03:23:38;5.70;99.90
56336;DHT22;42241;53.510;10.170;2022-12-24T03:26:05;5.70;99.90
56336;DHT22;42241;53.510;10.170;2022-12-24T03:28:31;5.60;99.90
56336;DHT22;42241;53.510;10.170;2022-12-24T03:30:59;5.60;99.90
56336;DHT22;42241;53.510;10.170;2022-12-24T03:33:25;5.70;99.90
56336;DHT22;42241;53.510;10.170;2022-12-24T03:35:51;5.70;99.90
56336;DHT22;42241;53.510;10.170;2022-12-24T03:38:16;5.70;99.90
56336;DHT22;42241;53.510;10.170;2022-12-24T03:40:42;5.70;99.90
56336;DHT22;42241;53.510;10.170;2022-12-24T03:43:07;5.70;99.90
56336;DHT22;42241;53.510;10.170;2022-12-24T03:45:33;5.70;99.90
56336;DHT22;42241;53.510;10.170;2022-12-24T03:47:59;5.70;99.90
56336;DHT22;42241;53.510;10.170;2022-12-24T03:50:24;5.70;99.90
56336;DHT22;42241;53.510;10.170;2022-12-24T03:52:50;5.70;99.90
56336;DHT22;42241;53.510;10.170;2022-12-24T03:55:15;5.70;99.90
56336;DHT22;42241;53.510;10.170;2022-12-24T03:57:41;5.70;99.90
56336;DHT22;42241;53.510;10.170;2022-12-24T04:00:06;5.70;99.90
56336;DHT22;42241;53.510;10.170;2022-12-24T04:02:32;5.70;99.90
56336;DHT22;42241;53.510;10.170;2022-12-24T04:04:58;5.70;99.90
56336;DHT22;42241;53.510;10.170;2022-12-24T04:07:23;5.70;99.90
56336;DHT22;42241;53.510;10.170;2022-12-24T04:09:49;5.70;99.90
56336;DHT22;42241;53.510;10.170;2022-12-24T04:12:14;5.70;99.90
56336;DHT22;42241;53.510;10.170;2022-12-24T04:14:40;5.70;99.90
56336;DHT22;42241;53.510;10.170;2022-12-24T04:17:06;5.70;99.90
56336;DHT22;42241;53.510;10.170;2022-12-24T04:19:32;5.60;99.90
56336;DHT22;42241;53.510;10.170;2022-12-24T04:21:57;5.60;99.90
56336;DHT22;42241;53.510;10.170;2022-12-24T04:24:23;5.60;99.90
56336;DHT22;42241;53.510;10.170;2022-12-24T04:26:49;5.60;99.90
56336;DHT22;42241;53.510;10.170;2022-12-24T04:29:14;5.70;99.90
56336;DHT22;42241;53.510;10.170;2022-12-24T04:31:40;5.70;99.90
56336;DHT22;42241;53.510;10.170;2022-12-24T04:34:05;5.60;99.90
56336;DHT22;42241;53.510;10.170;2022-12-24T04:36:31;5.60;99.90
56336;DHT22;42241;53.510;10.170;2022-12-24T04:38:56;5.60;99.90
56336;DHT22;42241;53.510;10.170;2022-12-24T04:41:22;5.70;99.90
56336;DHT22;42241;53.510;10.170;2022-12-24T04:43:48;5.70;99.90
56336;DHT22;42241;53.510;10.170;2022-12-24T04:46:15;5.60;99.90
56336;DHT22;42241;53.510;10.170;2022-12-24T04:48:43;5.60;99.90
56336;DHT22;42241;53.510;10.170;2022-12-24T04:51:09;5.60;99.90
56336;DHT22;42241;53.510;10.170;2022-12-24T04:53:35;5.60;99.90
56336;DHT22;42241;53.510;10.170;2022-12-24T04:56:00;5.60;99.90
56336;DHT22;42241;53.510;10.170;2022-12-24T04:58:26;5.60;99.90
56336;DHT22;42241;53.510;10.170;2022-12-24T05:00:52;5.60;99.90
56336;DHT22;42241;53.510;10.170;2022-12-24T05:03:18;5.60;99.90
56336;DHT22;42241;53.510;10.170;2022-12-24T05:05:43;5.60;99.90
56336;DHT22;42241;53.510;10.170;2022-12-24T05:08:09;5.60;99.90
56336;DHT22;42241;53.510;10.170;2022-12-24T05:10:35;5.60;99.90
56336;DHT22;42241;53.510;10.170;2022-12-24T05:13:00;5.60;99.90
56336;DHT22;42241;53.510;10.170;2022-12-24T05:15:26;5.60;99.90
56336;DHT22;42241;53.510;10.170;2022-12-24T05:17:51;5.60;99.90
56336;DHT22;42241;53.510;10.170;2022-12-24T05:20:17;5.50;99.90
56336;DHT22;42241;53.510;10.170;2022-12-24T05:22:42;5.50;99.90
56336;DHT22;42241;53.510;10.170;2022-12-24T05:25:31;5.50;99.90
56336;DHT22;42241;53.510;10.170;2022-12-24T05:28:18;5.50;99.90
56336;DHT22;42241;53.510;10.170;2022-12-24T05:30:44;5.50;99.90
56336;DHT22;42241;53.510;10.170;2022-12-24T05:33:09;5.50;99.90
56336;DHT22;42241;53.510;10.170;2022-12-24T05:35:35;5.60;99.90
56336;DHT22;42241;53.510;10.170;2022-12-24T05:38:00;5.50;99.90
56336;DHT22;42241;53.510;10.170;2022-12-24T05:40:26;5.50;99.90
56336;DHT22;42241;53.510;10.170;2022-12-24T05:42:51;5.60;99.90
56336;DHT22;42241;53.510;10.170;2022-12-24T05:45:18;5.50;99.90
56336;DHT22;42241;53.510;10.170;2022-12-24T05:47:43;5.60;99.90
56336;DHT22;42241;53.510;10.170;2022-12-24T05:50:09;5.60;99.90
56336;DHT22;42241;53.510;10.170;2022-12-24T05:52:35;5.50;99.90
56336;DHT22;42241;53.510;10.170;2022-12-24T05:55:00;5.60;99.90
56336;DHT22;42241;53.510;10.170;2022-12-24T05:57:26;5.50;99.90
56336;DHT22;42241;53.510;10.170;2022-12-24T05:59:51;5.50;99.90
56336;DHT22;42241;53.510;10.170;2022-12-24T06:02:17;5.50;99.90
56336;DHT22;42241;53.510;10.170;2022-12-24T06:04:42;5.50;99.90
56336;DHT22;42241;53.510;10.170;2022-12-24T06:07:08;5.60;99.90
56336;DHT22;42241;53.510;10.170;2022-12-24T06:09:33;5.60;99.90
56336;DHT22;42241;53.510;10.170;2022-12-24T06:11:59;5.60;99.90
56336;DHT22;42241;53.510;10.170;2022-12-24T06:14:24;5.50;99.90
56336;DHT22;42241;53.510;10.170;2022-12-24T06:16:50;5.50;99.90
56336;DHT22;42241;53.510;10.170;2022-12-24T06:19:16;5.50;99.90
56336;DHT22;42241;53.510;10.170;2022-12-24T06:21:41;5.50;99.90
56336;DHT22;42241;53.510;10.170;2022-12-24T06:24:07;5.50;99.90
56336;DHT22;42241;53.510;10.170;2022-12-24T06:26:32;5.50;99.90
56336;DHT22;42241;53.510;10.170;2022-12-24T06:28:58;5.50;99.90
56336;DHT22;42241;53.510;10.170;2022-12-24T06:31:24;5.50;99.90
56336;DHT22;42241;53.510;10.170;2022-12-24T06:33:50;5.50;99.90
56336;DHT22;42241;53.510;10.170;2022-12-24T06:36:16;5.50;99.90
56336;DHT22;42241;53.510;10.170;2022-12-24T06:38:42;5.50;99.90
56336;DHT22;42241;53.510;10.170;2022-12-24T06:41:08;5.50;99.90
56336;DHT22;42241;53.510;10.170;2022-12-24T06:43:34;5.50;99.90
56336;DHT22;42241;53.510;10.170;2022-12-24T06:45:59;5.40;99.90
56336;DHT22;42241;53.510;10.170;2022-12-24T06:48:25;5.40;99.90
56336;DHT22;42241;53.510;10.170;2022-12-24T06:50:50;5.40;99.90
56336;DHT22;42241;53.510;10.170;2022-12-24T06:53:16;5.40;99.90
56336;DHT22;42241;53.510;10.170;2022-12-24T06:55:42;5.30;99.90
56336;DHT22;42241;53.510;10.170;2022-12-24T06:58:07;5.30;99.90
56336;DHT22;42241;53.510;10.170;2022-12-24T07:00:33;5.40;99.90
56336;DHT22;42241;53.510;10.170;2022-12-24T07:02:58;5.30;99.90
56336;DHT22;42241;53.510;10.170;2022-12-24T07:05:24;5.40;99.90
56336;DHT22;42241;53.510;10.170;2022-12-24T07:07:50;5.40;99.90
56336;DHT22;42241;53.510;10.170;2022-12-24T07:10:16;5.40;99.90
56336;DHT22;42241;53.510;10.170;2022-12-24T07:12:41;5.40;99.90
56336;DHT22;42241;53.510;10.170;2022-12-24T07:15:08;5.30;99.90
56336;DHT22;42241;53.510;10.170;2022-12-24T07:17:33;5.40;99.90
56336;DHT22;42241;53.510;10.170;2022-12-24T07:19:59;5.30;99.90
56336;DHT22;42241;53.510;10.170;2022-12-24T07:22:24;5.30;99.90
56336;DHT22;42241;53.510;10.170;2022-12-24T07:24:50;5.30;99.90
56336;DHT22;42241;53.510;10.170;2022-12-24T07:27:15;5.30;99.90
56336;DHT22;42241;53.510;10.170;2022-12-24T07:29:41;5.30;99.90
56336;DHT22;42241;53.510;10.170;2022-12-24T07:32:07;5.30;99.90
56336;DHT22;42241;53.510;10.170;2022-12-24T07:34:32;5.30;99.90
56336;DHT22;42241;53.510;10.170;2022-12-24T07:36:58;5.30;99.90
56336;DHT22;42241;53.510;10.170;2022-12-24T07:39:23;5.30;99.90
56336;DHT22;42241;53.510;10.170;2022-12-24T07:41:49;5.30;99.90
56336;DHT22;42241;53.510;10.170;2022-12-24T07:44:15;5.30;99.90
56336;DHT22;42241;53.510;10.170;2022-12-24T07:46:41;5.40;99.90
56336;DHT22;42241;53.510;10.170;2022-12-24T07:49:07;5.40;99.90
56336;DHT22;42241;53.510;10.170;2022-12-24T07:51:33;5.30;99.90
56336;DHT22;42241;53.510;10.170;2022-12-24T07:53:58;5.30;99.90
56336;DHT22;42241;53.510;10.170;2022-12-24T07:56:24;5.30;99.90
56336;DHT22;42241;53.510;10.170;2022-12-24T07:58:50;5.30;99.90
56336;DHT22;42241;53.510;10.170;2022-12-24T08:01:16;5.40;99.90
56336;DHT22;42241;53.510;10.170;2022-12-24T08:03:41;5.40;99.90
56336;DHT22;42241;53.510;10.170;2022-12-24T08:06:08;5.30;99.90
56336;DHT22;42241;53.510;10.170;2022-12-24T08:08:33;5.30;99.90
56336;DHT22;42241;53.510;10.170;2022-12-24T08:11:00;5.40;99.90
56336;DHT22;42241;53.510;10.170;2022-12-24T08:13:27;5.40;99.90
56336;DHT22;42241;53.510;10.170;2022-12-24T08:15:52;5.40;99.90
56336;DHT22;42241;53.510;10.170;2022-12-24T08:18:18;5.50;99.90
56336;DHT22;42241;53.510;10.170;2022-12-24T08:20:43;5.50;99.90
56336;DHT22;42241;53.510;10.170;2022-12-24T08:23:09;5.50;99.90
56336;DHT22;42241;53.510;10.170;2022-12-24T08:25:35;5.50;99.90
56336;DHT22;42241;53.510;10.170;2022-12-24T08:28:00;5.50;99.90
56336;DHT22;42241;53.510;10.170;2022-12-24T08:30:26;5.50;99.90
56336;DHT22;42241;53.510;10.170;2022-12-24T08:32:52;5.50;99.90
56336;DHT22;42241;53.510;10.170;2022-12-24T08:35:19;5.50;99.90
56336;DHT22;42241;53.510;10.170;2022-12-24T08:37:44;5.50;99.90
56336;DHT22;42241;53.510;10.170;2022-12-24T08:40:12;5.40;99.90
56336;DHT22;42241;53.510;10.170;2022-12-24T08:42:38;5.40;99.90
56336;DHT22;42241;53.510;10.170;2022-12-24T08:45:04;5.40;99.90
56336;DHT22;42241;53.510;10.170;2022-12-24T08:47:29;5.40;99.90
56336;DHT22;42241;53.510;10.170;2022-12-24T08:49:55;5.40;99.90
56336;DHT22;42241;53.510;10.170;2022-12-24T08:52:20;5.40;99.90
56336;DHT22;42241;53.510;10.170;2022-12-24T08:54:46;5.40;99.90
56336;DHT22;42241;53.510;10.170;2022-12-24T08:57:11;5.40;99.90
56336;DHT22;42241;53.510;10.170;2022-12-24T08:59:40;5.40;99.90
56336;DHT22;42241;53.510;10.170;2022-12-24T09:02:08;5.50;99.90
56336;DHT22;42241;53.510;10.170;2022-12-24T09:04:36;5.60;99.90
56336;DHT22;42241;53.510;10.170;2022-12-24T09:07:03;5.60;99.90
56336;DHT22;42241;53.510;10.170;2022-12-24T09:09:29;5.60;99.90
56336;DHT22;42241;53.510;10.170;2022-12-24T09:11:55;5.60;99.90
56336;DHT22;42241;53.510;10.170;2022-12-24T09:14:20;5.60;99.90
56336;DHT22;42241;53.510;10.170;2022-12-24T09:16:46;5.60;99.90
56336;DHT22;42241;53.510;10.170;2022-12-24T09:19:11;5.70;99.90
56336;DHT22;42241;53.510;10.170;2022-12-24T09:21:37;5.70;99.90
56336;DHT22;42241;53.510;10.170;2022-12-24T09:24:03;5.70;99.90
56336;DHT22;42241;53.510;10.170;2022-12-24T09:26:28;5.70;99.90
56336;DHT22;42241;53.510;10.170;2022-12-24T09:28:56;5.70;99.90
56336;DHT22;42241;53.510;10.170;2022-12-24T09:31:21;5.80;99.90
56336;DHT22;42241;53.510;10.170;2022-12-24T09:33:47;5.70;99.90
56336;DHT22;42241;53.510;10.170;2022-12-24T09:36:13;5.70;99.90
56336;DHT22;42241;53.510;10.170;2022-12-24T09:38:39;5.70;99.90
56336;DHT22;42241;53.510;10.170;2022-12-24T09:43:39;5.60;99.90
56336;DHT22;42241;53.510;10.170;2022-12-24T09:46:14;5.70;99.90
56336;DHT22;42241;53.510;10.170;2022-12-24T09:48:42;5.70;99.90
56336;DHT22;42241;53.510;10.170;2022-12-24T09:51:10;5.80;99.90
56336;DHT22;42241;53.510;10.170;2022-12-24T09:53:38;5.80;99.90
56336;DHT22;42241;53.510;10.170;2022-12-24T09:56:08;5.90;99.90
56336;DHT22;42241;53.510;10.170;2022-12-24T09:58:39;6.00;99.90
56336;DHT22;42241;53.510;10.170;2022-12-24T10:01:11;6.00;99.90
56336;DHT22;42241;53.510;10.170;2022-12-24T10:03:37;6.00;99.90
56336;DHT22;42241;53.510;10.170;2022-12-24T10:06:07;6.10;99.90
56336;DHT22;42241;53.510;10.170;2022-12-24T10:14:21;6.20;99.90
56336;DHT22;42241;53.510;10.170;2022-12-24T10:17:23;6.30;99.90
56336;DHT22;42241;53.510;10.170;2022-12-24T10:19:51;6.50;99.90
56336;DHT22;42241;53.510;10.170;2022-12-24T10:22:27;6.50;99.90
56336;DHT22;42241;53.510;10.170;2022-12-24T10:24:58;6.40;99.90
56336;DHT22;42241;53.510;10.170;2022-12-24T10:27:44;6.40;99.90
56336;DHT22;42241;53.510;10.170;2022-12-24T10:30:17;6.40;99.90
56336;DHT22;42241;53.510;10.170;2022-12-24T10:32:44;6.20;99.90
56336;DHT22;42241;53.510;10.170;2022-12-24T10:37:40;6.10;99.90
56336;DHT22;42241;53.510;10.170;2022-12-24T10:42:52;6.30;99.90
56336;DHT22;42241;53.510;10.170;2022-12-24T10:45:21;6.20;99.90
56336;DHT22;42241;53.510;10.170;2022-12-24T10:47:54;6.20;99.90
56336;DHT22;42241;53.510;10.170;2022-12-24T10:50:40;6.20;99.90
56336;DHT22;42241;53.510;10.170;2022-12-24T10:53:15;6.20;99.90
56336;DHT22;42241;53.510;10.170;2022-12-24T10:55:43;6.20;99.90
56336;DHT22;42241;53.510;10.170;2022-12-24T10:58:15;6.10;99.90
56336;DHT22;42241;53.510;10.170;2022-12-24T11:00:52;5.90;99.90
56336;DHT22;42241;53.510;10.170;2022-12-24T11:09:34;5.80;99.90
56336;DHT22;42241;53.510;10.170;2022-12-24T11:12:00;6.00;99.90
56336;DHT22;42241;53.510;10.170;2022-12-24T11:14:30;6.00;99.90
56336;DHT22;42241;53.510;10.170;2022-12-24T11:16:57;6.10;99.90
56336;DHT22;42241;53.510;10.170;2022-12-24T11:19:30;6.20;99.90
56336;DHT22;42241;53.510;10.170;2022-12-24T11:21:57;6.20;99.90
56336;DHT22;42241;53.510;10.170;2022-12-24T11:24:30;6.20;99.90
56336;DHT22;42241;53.510;10.170;2022-12-24T11:27:20;6.30;99.90
56336;DHT22;42241;53.510;10.170;2022-12-24T11:29:42;6.40;99.90
56336;DHT22;42241;53.510;10.170;2022-12-24T11:32:25;6.40;99.90
56336;DHT22;42241;53.510;10.170;2022-12-24T11:34:51;6.50;99.90
56336;DHT22;42241;53.510;10.170;2022-12-24T11:37:20;6.50;99.90
56336;DHT22;42241;53.510;10.170;2022-12-24T11:39:47;6.50;99.90
56336;DHT22;42241;53.510;10.170;2022-12-24T11:44:51;6.30;99.90
56336;DHT22;42241;53.510;10.170;2022-12-24T11:47:28;6.50;99.90
56336;DHT22;42241;53.510;10.170;2022-12-24T11:50:01;6.50;99.90
56336;DHT22;42241;53.510;10.170;2022-12-24T11:52:41;6.60;99.90
56336;DHT22;42241;53.510;10.170;2022-12-24T11:55:18;6.70;99.90
56336;DHT22;42241;53.510;10.170;2022-12-24T11:58:12;6.70;99.90
56336;DHT22;42241;53.510;10.170;2022-12-24T12:00:30;6.60;99.90
56336;DHT22;42241;53.510;10.170;2022-12-24T12:02:57;6.60;99.90
56336;DHT22;42241;53.510;10.170;2022-12-24T12:05:25;6.50;99.90
56336;DHT22;42241;53.510;10.170;2022-12-24T12:07:52;6.70;99.90
56336;DHT22;42241;53.510;10.170;2022-12-24T12:12:45;7.40;99.90
56336;DHT22;42241;53.510;10.170;2022-12-24T12:15:15;7.60;99.90
56336;DHT22;42241;53.510;10.170;2022-12-24T12:17:49;7.80;99.90
56336;DHT22;42241;53.510;10.170;2022-12-24T12:25:18;8.60;99.90
56336;DHT22;42241;53.510;10.170;2022-12-24T12:27:45;8.80;99.90
56336;DHT22;42241;53.510;10.170;2022-12-24T12:30:15;8.70;99.90
56336;DHT22;42241;53.510;10.170;2022-12-24T12:32:44;8.60;99.90
56336;DHT22;42241;53.510;10.170;2022-12-24T12:35:28;8.50;99.90
56336;DHT22;42241;53.510;10.170;2022-12-24T12:37:57;8.60;99.90
56336;DHT22;42241;53.510;10.170;2022-12-24T12:40:31;8.80;99.90
56336;DHT22;42241;53.510;10.170;2022-12-24T12:45:55;9.60;99.90
56336;DHT22;42241;53.510;10.170;2022-12-24T12:51:07;10.70;99.90
56336;DHT22;42241;53.510;10.170;2022-12-24T12:56:29;12.20;99.90
56336;DHT22;42241;53.510;10.170;2022-12-24T12:59:02;13.00;99.90
56336;DHT22;42241;53.510;10.170;2022-12-24T13:01:45;13.20;99.90
56336;DHT22;42241;53.510;10.170;2022-12-24T13:14:06;9.90;99.90
56336;DHT22;42241;53.510;10.170;2022-12-24T13:19:14;9.00;99.90
56336;DHT22;42241;53.510;10.170;2022-12-24T13:21:41;8.70;99.90
56336;DHT22;42241;53.510;10.170;2022-12-24T13:24:18;8.60;99.90
56336;DHT22;42241;53.510;10.170;2022-12-24T13:27:13;8.50;99.90
56336;DHT22;42241;53.510;10.170;2022-12-24T13:34:46;8.70;99.90
56336;DHT22;42241;53.510;10.170;2022-12-24T13:47:52;8.00;99.90
56336;DHT22;42241;53.510;10.170;2022-12-24T13:50:22;7.90;99.90
56336;DHT22;42241;53.510;10.170;2022-12-24T13:52:52;7.90;99.90
56336;DHT22;42241;53.510;10.170;2022-12-24T13:55:17;7.80;99.90
56336;DHT22;42241;53.510;10.170;2022-12-24T13:57:59;7.70;99.90
56336;DHT22;42241;53.510;10.170;2022-12-24T14:00:36;7.70;99.90
56336;DHT22;42241;53.510;10.170;2022-12-24T14:03:15;7.70;99.90
56336;DHT22;42241;53.510;10.170;2022-12-24T14:08:12;7.70;99.90
56336;DHT22;42241;53.510;10.170;2022-12-24T14:10:39;7.70;99.90
56336;DHT22;42241;53.510;10.170;2022-12-24T14:13:46;7.70;99.90
56336;DHT22;42241;53.510;10.170;2022-12-24T14:18:17;7.60;99.90
56336;DHT22;42241;53.510;10.170;2022-12-24T14:20:46;7.60;99.90
56336;DHT22;42241;53.510;10.170;2022-12-24T14:23:16;7.70;99.90
56336;DHT22;42241;53.510;10.170;2022-12-24T14:25:47;7.60;99.90
56336;DHT22;42241;53.510;10.170;2022-12-24T14:28:14;7.60;99.90
56336;DHT22;42241;53.510;10.170;2022-12-24T14:30:41;7.60;99.90
56336;DHT22;42241;53.510;10.170;2022-12-24T14:33:26;7.60;99.90
56336;DHT22;42241;53.510;10.170;2022-12-24T14:35:52;7.60;99.90
56336;DHT22;42241;53.510;10.170;2022-12-24T14:38:17;7.60;99.90
56336;DHT22;42241;53.510;10.170;2022-12-24T14:40:49;7.50;99.90
56336;DHT22;42241;53.510;10.170;2022-12-24T14:43:21;7.50;99.90
56336;DHT22;42241;53.510;10.170;2022-12-24T14:48:55;7.50;99.90
56336;DHT22;42241;53.510;10.170;2022-12-24T14:56:24;7.50;99.90
56336;DHT22;42241;53.510;10.170;2022-12-24T14:58:50;7.50;99.90
56336;DHT22;42241;53.510;10.170;2022-12-24T15:01:21;7.50;99.90
56336;DHT22;42241;53.510;10.170;2022-12-24T15:03:58;7.40;99.90
56336;DHT22;42241;53.510;10.170;2022-12-24T15:06:23;7.50;99.90
56336;DHT22;42241;53.510;10.170;2022-12-24T15:08:49;7.50;99.90
56336;DHT22;42241;53.510;10.170;2022-12-24T15:11:15;7.50;99.90
56336;DHT22;42241;53.510;10.170;2022-12-24T15:13:43;7.50;99.90
56336;DHT22;42241;53.510;10.170;2022-12-24T15:16:13;7.50;99.90
56336;DHT22;42241;53.510;10.170;2022-12-24T15:18:58;7.50;99.90
56336;DHT22;42241;53.510;10.170;2022-12-24T15:21:37;7.50;99.90
56336;DHT22;42241;53.510;10.170;2022-12-24T15:27:17;7.50;99.90
56336;DHT22;42241;53.510;10.170;2022-12-24T15:29:44;7.50;99.90
56336;DHT22;42241;53.510;10.170;2022-12-24T15:37:57;7.50;99.90
56336;DHT22;42241;53.510;10.170;2022-12-24T15:40:25;7.50;99.90
56336;DHT22;42241;53.510;10.170;2022-12-24T15:42:51;7.50;99.90
56336;DHT22;42241;53.510;10.170;2022-12-24T15:45:18;7.50;99.90
56336;DHT22;42241;53.510;10.170;2022-12-24T15:47:48;7.50;99.90
56336;DHT22;42241;53.510;10.170;2022-12-24T15:50:15;7.50;99.90
56336;DHT22;42241;53.510;10.170;2022-12-24T15:52:42;7.50;99.90
56336;DHT22;42241;53.510;10.170;2022-12-24T16:03:25;7.40;99.90
56336;DHT22;42241;53.510;10.170;2022-12-24T16:08:27;7.50;99.90
56336;DHT22;42241;53.510;10.170;2022-12-24T16:13:28;7.50;99.90
56336;DHT22;42241;53.510;10.170;2022-12-24T16:16:03;7.50;99.90
56336;DHT22;42241;53.510;10.170;2022-12-24T16:18:36;7.50;99.90
56336;DHT22;42241;53.510;10.170;2022-12-24T16:21:04;7.50;99.90
56336;DHT22;42241;53.510;10.170;2022-12-24T16:23:36;7.50;99.90
56336;DHT22;42241;53.510;10.170;2022-12-24T16:26:02;7.60;99.90
56336;DHT22;42241;53.510;10.170;2022-12-24T16:28:28;7.50;99.90
56336;DHT22;42241;53.510;10.170;2022-12-24T16:30:54;7.50;99.90
56336;DHT22;42241;53.510;10.170;2022-12-24T16:33:20;7.60;99.90
56336;DHT22;42241;53.510;10.170;2022-12-24T16:35:47;7.70;99.90
56336;DHT22;42241;53.510;10.170;2022-12-24T16:38:13;7.70;99.90
56336;DHT22;42241;53.510;10.170;2022-12-24T16:40:41;7.70;99.90
56336;DHT22;42241;53.510;10.170;2022-12-24T16:43:07;7.70;99.90
56336;DHT22;42241;53.510;10.170;2022-12-24T16:45:52;7.80;99.90
56336;DHT22;42241;53.510;10.170;2022-12-24T16:48:20;7.80;99.90
56336;DHT22;42241;53.510;10.170;2022-12-24T16:50:46;7.90;99.90
56336;DHT22;42241;53.510;10.170;2022-12-24T16:53:27;7.90;99.90
56336;DHT22;42241;53.510;10.170;2022-12-24T16:55:52;7.90;99.90
56336;DHT22;42241;53.510;10.170;2022-12-24T16:58:19;7.90;99.90
56336;DHT22;42241;53.510;10.170;2022-12-24T17:00:46;8.00;99.90
56336;DHT22;42241;53.510;10.170;2022-12-24T17:03:12;7.90;99.90
56336;DHT22;42241;53.510;10.170;2022-12-24T17:05:38;8.00;99.90
56336;DHT22;42241;53.510;10.170;2022-12-24T17:08:04;8.00;99.90
56336;DHT22;42241;53.510;10.170;2022-12-24T17:10:33;8.00;99.90
56336;DHT22;42241;53.510;10.170;2022-12-24T17:12:58;8.10;99.90
56336;DHT22;42241;53.510;10.170;2022-12-24T17:15:24;8.00;99.90
56336;DHT22;42241;53.510;10.170;2022-12-24T17:17:50;8.10;99.90
56336;DHT22;42241;53.510;10.170;2022-12-24T17:20:16;8.10;99.90
56336;DHT22;42241;53.510;10.170;2022-12-24T17:22:41;8.20;99.90
56336;DHT22;42241;53.510;10.170;2022-12-24T17:25:08;8.10;99.90
56336;DHT22;42241;53.510;10.170;2022-12-24T17:27:36;8.10;99.90
56336;DHT22;42241;53.510;10.170;2022-12-24T17:30:01;8.20;99.90
56336;DHT22;42241;53.510;10.170;2022-12-24T17:32:27;8.20;99.90
56336;DHT22;42241;53.510;10.170;2022-12-24T17:34:52;8.20;99.90